Terminal Aerodrome Forecast
Issued by NWS

Home | Current Version | Previous Version | Text Only | Print | Product List | Glossary On
Versions: 1 2 3 4 5 6 7 8 9 10 11 12 13 14 15 16 17 18 19 20 21 22 23 24 25
000
FTUS46 KOTX 271733
TAFCOE
TAF
KCOE 271733Z 2718/2818 25004KT 3SM -SN BR SCT007 OVC019
      TEMPO 2718/2720 1SM -SN OVC007
     FM272000 23006KT 3SM -SN SCT012 OVC020
     FM280400 17005KT 3/4SM -SN OVC009
     FM281100 30005KT 5SM BR BCFG SCT008 OVC012=

USA.gov is the U.S. government's official web portal to all federal, state and local government web resources and services.